sensor_id;sensor_type;location;lat;lon;timestamp;pressure;altitude;pressure_sealevel;temperature;humidity
70338;BME280;57757;53.198;19.646;2024-03-25T00:00:14;98633.77;;;4.30;70.98
70338;BME280;57757;53.198;19.646;2024-03-25T00:03:02;98637.73;;;4.30;71.13
70338;BME280;57757;53.198;19.646;2024-03-25T00:05:29;98638.58;;;4.31;71.04
70338;BME280;57757;53.198;19.646;2024-03-25T00:07:59;98637.48;;;4.33;71.23
70338;BME280;57757;53.198;19.646;2024-03-25T00:10:26;98637.11;;;4.35;71.17
70338;BME280;57757;53.198;19.646;2024-03-25T00:12:54;98633.14;;;4.36;71.18
70338;BME280;57757;53.198;19.646;2024-03-25T00:15:22;98628.79;;;4.38;71.25
70338;BME280;57757;53.198;19.646;2024-03-25T00:17:52;98627.39;;;4.39;71.17
70338;BME280;57757;53.198;19.646;2024-03-25T00:20:20;98628.17;;;4.42;71.28
70338;BME280;57757;53.198;19.646;2024-03-25T00:22:47;98625.70;;;4.45;71.32
70338;BME280;57757;53.198;19.646;2024-03-25T00:25:14;98625.30;;;4.47;71.43
70338;BME280;57757;53.198;19.646;2024-03-25T00:27:43;98623.49;;;4.51;71.49
70338;BME280;57757;53.198;19.646;2024-03-25T00:30:11;98620.16;;;4.54;71.48
70338;BME280;57757;53.198;19.646;2024-03-25T00:32:39;98617.86;;;4.56;71.58
70338;BME280;57757;53.198;19.646;2024-03-25T00:35:07;98612.63;;;4.59;71.49
70338;BME280;57757;53.198;19.646;2024-03-25T00:37:34;98614.28;;;4.61;71.52
70338;BME280;57757;53.198;19.646;2024-03-25T00:40:01;98610.59;;;4.65;71.54
70338;BME280;57757;53.198;19.646;2024-03-25T00:42:29;98608.14;;;4.66;71.50
70338;BME280;57757;53.198;19.646;2024-03-25T00:44:56;98607.78;;;4.67;71.46
70338;BME280;57757;53.198;19.646;2024-03-25T00:47:23;98601.18;;;4.68;71.58
70338;BME280;57757;53.198;19.646;2024-03-25T00:49:50;98598.21;;;4.70;71.60
70338;BME280;57757;53.198;19.646;2024-03-25T00:52:18;98603.34;;;4.71;71.67
70338;BME280;57757;53.198;19.646;2024-03-25T00:54:45;98601.77;;;4.72;71.52
70338;BME280;57757;53.198;19.646;2024-03-25T00:57:12;98600.98;;;4.70;71.44
70338;BME280;57757;53.198;19.646;2024-03-25T00:59:39;98600.16;;;4.68;71.36
70338;BME280;57757;53.198;19.646;2024-03-25T01:02:07;98603.29;;;4.67;71.47
70338;BME280;57757;53.198;19.646;2024-03-25T01:04:35;98600.91;;;4.66;71.55
70338;BME280;57757;53.198;19.646;2024-03-25T01:07:02;98605.74;;;4.65;71.60
70338;BME280;57757;53.198;19.646;2024-03-25T01:09:30;98605.30;;;4.62;71.57
70338;BME280;57757;53.198;19.646;2024-03-25T01:11:57;98600.16;;;4.61;71.51
70338;BME280;57757;53.198;19.646;2024-03-25T01:14:24;98601.06;;;4.60;71.45
70338;BME280;57757;53.198;19.646;2024-03-25T01:16:52;98599.54;;;4.59;71.64
70338;BME280;57757;53.198;19.646;2024-03-25T01:19:19;98597.48;;;4.58;71.61
70338;BME280;57757;53.198;19.646;2024-03-25T01:21:48;98599.21;;;4.58;71.66
70338;BME280;57757;53.198;19.646;2024-03-25T01:24:16;98600.08;;;4.58;71.70
70338;BME280;57757;53.198;19.646;2024-03-25T01:26:43;98596.47;;;4.58;71.69
70338;BME280;57757;53.198;19.646;2024-03-25T01:29:10;98599.20;;;4.58;71.75
70338;BME280;57757;53.198;19.646;2024-03-25T01:31:37;98596.45;;;4.58;71.80
70338;BME280;57757;53.198;19.646;2024-03-25T01:34:05;98592.70;;;4.56;71.68
70338;BME280;57757;53.198;19.646;2024-03-25T01:36:33;98590.52;;;4.55;71.79
70338;BME280;57757;53.198;19.646;2024-03-25T01:39:01;98590.52;;;4.54;71.80
70338;BME280;57757;53.198;19.646;2024-03-25T01:41:28;98590.35;;;4.54;71.94
70338;BME280;57757;53.198;19.646;2024-03-25T01:43:56;98592.92;;;4.55;71.94
70338;BME280;57757;53.198;19.646;2024-03-25T01:46:23;98588.11;;;4.55;71.92
70338;BME280;57757;53.198;19.646;2024-03-25T01:48:50;98585.70;;;4.55;71.84
70338;BME280;57757;53.198;19.646;2024-03-25T01:51:21;98579.67;;;4.54;71.88
70338;BME280;57757;53.198;19.646;2024-03-25T01:53:52;98583.12;;;4.54;72.03
70338;BME280;57757;53.198;19.646;2024-03-25T01:56:21;98585.87;;;4.55;71.92
70338;BME280;57757;53.198;19.646;2024-03-25T01:58:50;98582.08;;;4.55;72.08
70338;BME280;57757;53.198;19.646;2024-03-25T02:01:18;98581.39;;;4.55;71.89
70338;BME280;57757;53.198;19.646;2024-03-25T02:03:47;98579.70;;;4.53;71.90
70338;BME280;57757;53.198;19.646;2024-03-25T02:06:16;98580.46;;;4.51;71.93
70338;BME280;57757;53.198;19.646;2024-03-25T02:08:44;98579.63;;;4.49;71.89
70338;BME280;57757;53.198;19.646;2024-03-25T02:11:11;98583.30;;;4.47;71.94
70338;BME280;57757;53.198;19.646;2024-03-25T02:13:39;98581.26;;;4.46;72.04
70338;BME280;57757;53.198;19.646;2024-03-25T02:16:06;98583.20;;;4.44;72.00
70338;BME280;57757;53.198;19.646;2024-03-25T02:18:34;98583.95;;;4.42;72.02
70338;BME280;57757;53.198;19.646;2024-03-25T02:21:01;98583.31;;;4.40;72.01
70338;BME280;57757;53.198;19.646;2024-03-25T02:23:28;98584.36;;;4.39;72.12
70338;BME280;57757;53.198;19.646;2024-03-25T02:25:56;98586.98;;;4.37;72.13
70338;BME280;57757;53.198;19.646;2024-03-25T02:28:23;98584.98;;;4.34;72.15
70338;BME280;57757;53.198;19.646;2024-03-25T02:30:50;98590.17;;;4.33;72.07
70338;BME280;57757;53.198;19.646;2024-03-25T02:33:17;98596.35;;;4.34;72.13
70338;BME280;57757;53.198;19.646;2024-03-25T02:35:45;98595.17;;;4.33;72.17
70338;BME280;57757;53.198;19.646;2024-03-25T02:38:12;98596.55;;;4.32;72.24
70338;BME280;57757;53.198;19.646;2024-03-25T02:40:41;98595.52;;;4.32;72.18
70338;BME280;57757;53.198;19.646;2024-03-25T02:43:10;98595.91;;;4.30;72.25
70338;BME280;57757;53.198;19.646;2024-03-25T02:45:37;98599.25;;;4.28;72.09
70338;BME280;57757;53.198;19.646;2024-03-25T02:48:04;98599.79;;;4.27;72.26
70338;BME280;57757;53.198;19.646;2024-03-25T02:50:32;98602.23;;;4.25;72.29
70338;BME280;57757;53.198;19.646;2024-03-25T02:52:59;98598.67;;;4.23;72.11
70338;BME280;57757;53.198;19.646;2024-03-25T02:55:26;98598.01;;;4.22;72.26
70338;BME280;57757;53.198;19.646;2024-03-25T02:57:54;98595.61;;;4.21;72.27
70338;BME280;57757;53.198;19.646;2024-03-25T03:00:21;98595.67;;;4.19;72.13
70338;BME280;57757;53.198;19.646;2024-03-25T03:02:48;98593.34;;;4.15;72.18
70338;BME280;57757;53.198;19.646;2024-03-25T03:05:15;98594.64;;;4.11;72.33
70338;BME280;57757;53.198;19.646;2024-03-25T03:07:43;98598.00;;;4.08;72.27
70338;BME280;57757;53.198;19.646;2024-03-25T03:10:10;98596.36;;;4.04;72.17
70338;BME280;57757;53.198;19.646;2024-03-25T03:12:37;98598.55;;;3.99;72.22
70338;BME280;57757;53.198;19.646;2024-03-25T03:15:05;98594.31;;;3.95;72.32
70338;BME280;57757;53.198;19.646;2024-03-25T03:17:32;98597.45;;;3.94;72.16
70338;BME280;57757;53.198;19.646;2024-03-25T03:19:59;98595.59;;;3.92;72.16
70338;BME280;57757;53.198;19.646;2024-03-25T03:22:27;98597.70;;;3.90;72.30
70338;BME280;57757;53.198;19.646;2024-03-25T03:24:54;98598.41;;;3.89;72.35
70338;BME280;57757;53.198;19.646;2024-03-25T03:27:21;98596.68;;;3.90;72.45
70338;BME280;57757;53.198;19.646;2024-03-25T03:29:48;98594.80;;;3.89;72.50
70338;BME280;57757;53.198;19.646;2024-03-25T03:32:16;98594.67;;;3.88;72.44
70338;BME280;57757;53.198;19.646;2024-03-25T03:34:43;98599.52;;;3.85;72.47
70338;BME280;57757;53.198;19.646;2024-03-25T03:37:12;98604.54;;;3.83;72.48
70338;BME280;57757;53.198;19.646;2024-03-25T03:39:39;98605.96;;;3.81;72.54
70338;BME280;57757;53.198;19.646;2024-03-25T03:42:06;98609.93;;;3.81;72.50
70338;BME280;57757;53.198;19.646;2024-03-25T03:44:34;98607.06;;;3.79;72.46
70338;BME280;57757;53.198;19.646;2024-03-25T03:47:01;98606.23;;;3.76;72.50
70338;BME280;57757;53.198;19.646;2024-03-25T03:49:28;98609.55;;;3.75;72.54
70338;BME280;57757;53.198;19.646;2024-03-25T03:51:55;98609.38;;;3.75;72.44
70338;BME280;57757;53.198;19.646;2024-03-25T03:54:24;98604.39;;;3.75;72.61
70338;BME280;57757;53.198;19.646;2024-03-25T03:56:51;98606.63;;;3.75;72.52
70338;BME280;57757;53.198;19.646;2024-03-25T03:59:18;98605.41;;;3.75;72.61
70338;BME280;57757;53.198;19.646;2024-03-25T04:01:45;98609.89;;;3.75;72.66
70338;BME280;57757;53.198;19.646;2024-03-25T04:04:13;98607.48;;;3.76;72.70
70338;BME280;57757;53.198;19.646;2024-03-25T04:06:40;98613.82;;;3.76;72.66
70338;BME280;57757;53.198;19.646;2024-03-25T04:09:07;98611.62;;;3.75;72.70
70338;BME280;57757;53.198;19.646;2024-03-25T04:11:36;98615.58;;;3.75;72.64
70338;BME280;57757;53.198;19.646;2024-03-25T04:14:03;98615.23;;;3.75;72.71
70338;BME280;57757;53.198;19.646;2024-03-25T04:16:31;98617.30;;;3.75;72.63
70338;BME280;57757;53.198;19.646;2024-03-25T04:18:58;98616.91;;;3.76;72.93
70338;BME280;57757;53.198;19.646;2024-03-25T04:21:25;98620.16;;;3.77;72.85
70338;BME280;57757;53.198;19.646;2024-03-25T04:23:52;98616.38;;;3.76;72.83
70338;BME280;57757;53.198;19.646;2024-03-25T04:26:20;98621.35;;;3.78;72.95
70338;BME280;57757;53.198;19.646;2024-03-25T04:28:48;98619.57;;;3.81;73.01
70338;BME280;57757;53.198;19.646;2024-03-25T04:31:15;98620.21;;;3.82;72.95
70338;BME280;57757;53.198;19.646;2024-03-25T04:33:42;98622.40;;;3.85;72.96
70338;BME280;57757;53.198;19.646;2024-03-25T04:36:09;98622.34;;;3.88;72.92
70338;BME280;57757;53.198;19.646;2024-03-25T04:38:37;98622.48;;;3.90;73.05
70338;BME280;57757;53.198;19.646;2024-03-25T04:41:04;98620.73;;;3.91;72.93
70338;BME280;57757;53.198;19.646;2024-03-25T04:43:31;98627.55;;;3.93;73.00
70338;BME280;57757;53.198;19.646;2024-03-25T04:46:01;98631.13;;;3.95;72.93
70338;BME280;57757;53.198;19.646;2024-03-25T04:48:29;98630.09;;;3.95;72.97
70338;BME280;57757;53.198;19.646;2024-03-25T04:50:56;98630.91;;;3.97;73.00
70338;BME280;57757;53.198;19.646;2024-03-25T04:53:23;98635.21;;;3.97;72.98
70338;BME280;57757;53.198;19.646;2024-03-25T04:55:50;98636.02;;;3.99;72.93
70338;BME280;57757;53.198;19.646;2024-03-25T04:58:17;98639.28;;;3.99;73.04
70338;BME280;57757;53.198;19.646;2024-03-25T05:00:45;98643.23;;;4.00;73.10
70338;BME280;57757;53.198;19.646;2024-03-25T05:03:12;98648.32;;;4.03;73.10
70338;BME280;57757;53.198;19.646;2024-03-25T05:05:39;98648.46;;;4.05;73.18
70338;BME280;57757;53.198;19.646;2024-03-25T05:08:06;98650.98;;;4.07;73.15
70338;BME280;57757;53.198;19.646;2024-03-25T05:10:33;98650.58;;;4.10;73.13
70338;BME280;57757;53.198;19.646;2024-03-25T05:13:01;98653.46;;;4.12;73.19
70338;BME280;57757;53.198;19.646;2024-03-25T05:15:28;98650.02;;;4.12;73.18
70338;BME280;57757;53.198;19.646;2024-03-25T05:17:55;98648.64;;;4.12;73.11
70338;BME280;57757;53.198;19.646;2024-03-25T05:20:22;98651.02;;;4.13;73.18
70338;BME280;57757;53.198;19.646;2024-03-25T05:22:49;98650.96;;;4.16;73.30
70338;BME280;57757;53.198;19.646;2024-03-25T05:25:17;98652.48;;;4.17;73.37
70338;BME280;57757;53.198;19.646;2024-03-25T05:27:44;98653.30;;;4.19;73.36
70338;BME280;57757;53.198;19.646;2024-03-25T05:30:12;98654.98;;;4.21;73.28
70338;BME280;57757;53.198;19.646;2024-03-25T05:32:39;98657.50;;;4.23;73.28
70338;BME280;57757;53.198;19.646;2024-03-25T05:35:06;98658.32;;;4.25;73.44
70338;BME280;57757;53.198;19.646;2024-03-25T05:37:34;98661.38;;;4.27;73.29
70338;BME280;57757;53.198;19.646;2024-03-25T05:40:03;98661.50;;;4.29;73.32
70338;BME280;57757;53.198;19.646;2024-03-25T05:42:31;98665.08;;;4.31;73.30
70338;BME280;57757;53.198;19.646;2024-03-25T05:44:58;98670.91;;;4.32;73.42
70338;BME280;57757;53.198;19.646;2024-03-25T05:47:25;98671.88;;;4.34;73.36
70338;BME280;57757;53.198;19.646;2024-03-25T05:49:53;98672.21;;;4.37;73.40
70338;BME280;57757;53.198;19.646;2024-03-25T05:52:20;98675.76;;;4.38;73.36
70338;BME280;57757;53.198;19.646;2024-03-25T05:54:47;98677.30;;;4.39;73.21
70338;BME280;57757;53.198;19.646;2024-03-25T05:57:15;98677.81;;;4.39;73.26
70338;BME280;57757;53.198;19.646;2024-03-25T05:59:42;98678.80;;;4.41;73.19
70338;BME280;57757;53.198;19.646;2024-03-25T06:02:09;98683.04;;;4.43;73.42
70338;BME280;57757;53.198;19.646;2024-03-25T06:04:36;98684.34;;;4.47;73.39
70338;BME280;57757;53.198;19.646;2024-03-25T06:07:03;98687.91;;;4.49;73.52
70338;BME280;57757;53.198;19.646;2024-03-25T06:09:30;98689.52;;;4.53;73.44
70338;BME280;57757;53.198;19.646;2024-03-25T06:11:58;98694.81;;;4.56;73.45
70338;BME280;57757;53.198;19.646;2024-03-25T06:14:25;98697.83;;;4.60;73.58
70338;BME280;57757;53.198;19.646;2024-03-25T06:16:52;98697.02;;;4.64;73.61
70338;BME280;57757;53.198;19.646;2024-03-25T06:19:19;98700.03;;;4.68;73.51
70338;BME280;57757;53.198;19.646;2024-03-25T06:21:48;98703.04;;;4.72;73.52
70338;BME280;57757;53.198;19.646;2024-03-25T06:24:19;98702.92;;;4.77;73.50
70338;BME280;57757;53.198;19.646;2024-03-25T06:26:46;98704.17;;;4.83;73.53
70338;BME280;57757;53.198;19.646;2024-03-25T06:29:13;98706.90;;;4.91;73.68
70338;BME280;57757;53.198;19.646;2024-03-25T06:31:41;98709.58;;;5.01;73.72
70338;BME280;57757;53.198;19.646;2024-03-25T06:34:24;98712.77;;;5.11;73.79
70338;BME280;57757;53.198;19.646;2024-03-25T06:36:51;98718.23;;;5.20;73.77
70338;BME280;57757;53.198;19.646;2024-03-25T06:39:18;98723.59;;;5.26;73.59
70338;BME280;57757;53.198;19.646;2024-03-25T06:41:48;98719.45;;;5.33;73.69
70338;BME280;57757;53.198;19.646;2024-03-25T06:44:15;98721.14;;;5.41;73.74
70338;BME280;57757;53.198;19.646;2024-03-25T06:46:42;98723.52;;;5.50;73.82
70338;BME280;57757;53.198;19.646;2024-03-25T06:49:10;98724.84;;;5.58;73.73
70338;BME280;57757;53.198;19.646;2024-03-25T06:51:37;98726.95;;;5.69;73.82
70338;BME280;57757;53.198;19.646;2024-03-25T06:54:07;98728.70;;;5.81;73.87
70338;BME280;57757;53.198;19.646;2024-03-25T06:56:34;98724.66;;;5.91;73.70
70338;BME280;57757;53.198;19.646;2024-03-25T06:59:01;98730.25;;;6.01;73.63
70338;BME280;57757;53.198;19.646;2024-03-25T07:01:29;98730.73;;;6.08;73.64
70338;BME280;57757;53.198;19.646;2024-03-25T07:03:56;98734.02;;;6.14;73.61
70338;BME280;57757;53.198;19.646;2024-03-25T07:06:23;98733.98;;;6.21;73.55
70338;BME280;57757;53.198;19.646;2024-03-25T07:08:53;98735.46;;;6.30;73.66
70338;BME280;57757;53.198;19.646;2024-03-25T07:11:21;98740.00;;;6.40;73.64
70338;BME280;57757;53.198;19.646;2024-03-25T07:13:48;98741.36;;;6.52;73.77
70338;BME280;57757;53.198;19.646;2024-03-25T07:16:15;98746.28;;;6.60;73.54
70338;BME280;57757;53.198;19.646;2024-03-25T07:18:42;98748.88;;;6.66;73.30
70338;BME280;57757;53.198;19.646;2024-03-25T07:21:09;98748.17;;;6.72;73.37
70338;BME280;57757;53.198;19.646;2024-03-25T07:23:36;98748.67;;;6.78;73.31
70338;BME280;57757;53.198;19.646;2024-03-25T07:26:04;98749.95;;;6.81;73.18
70338;BME280;57757;53.198;19.646;2024-03-25T07:28:31;98755.08;;;6.83;72.95
70338;BME280;57757;53.198;19.646;2024-03-25T07:30:59;98751.69;;;6.86;72.98
70338;BME280;57757;53.198;19.646;2024-03-25T07:33:26;98757.45;;;6.90;73.04
70338;BME280;57757;53.198;19.646;2024-03-25T07:35:53;98757.20;;;6.93;72.95
70338;BME280;57757;53.198;19.646;2024-03-25T07:38:21;98762.07;;;6.97;73.22
70338;BME280;57757;53.198;19.646;2024-03-25T07:40:52;98765.88;;;7.02;72.98
70338;BME280;57757;53.198;19.646;2024-03-25T07:43:24;98764.61;;;7.04;72.79
70338;BME280;57757;53.198;19.646;2024-03-25T07:45:52;98765.64;;;7.10;73.03
70338;BME280;57757;53.198;19.646;2024-03-25T07:48:19;98765.93;;;7.17;72.84
70338;BME280;57757;53.198;19.646;2024-03-25T07:50:47;98769.46;;;7.26;72.97
70338;BME280;57757;53.198;19.646;2024-03-25T07:53:14;98768.86;;;7.38;73.34
70338;BME280;57757;53.198;19.646;2024-03-25T07:55:44;98766.96;;;7.48;73.07
70338;BME280;57757;53.198;19.646;2024-03-25T07:58:15;98760.27;;;7.52;72.93
70338;BME280;57757;53.198;19.646;2024-03-25T08:00:42;98760.93;;;7.58;72.95
70338;BME280;57757;53.198;19.646;2024-03-25T08:03:13;98761.71;;;7.65;72.97
70338;BME280;57757;53.198;19.646;2024-03-25T08:05:40;98767.20;;;7.67;72.81
70338;BME280;57757;53.198;19.646;2024-03-25T08:08:07;98766.95;;;7.69;72.57
70338;BME280;57757;53.198;19.646;2024-03-25T08:10:36;98767.39;;;7.67;72.40
70338;BME280;57757;53.198;19.646;2024-03-25T08:13:08;98768.30;;;7.70;72.76
70338;BME280;57757;53.198;19.646;2024-03-25T08:15:41;98768.99;;;7.75;72.78
70338;BME280;57757;53.198;19.646;2024-03-25T08:18:14;98773.73;;;7.78;72.62
70338;BME280;57757;53.198;19.646;2024-03-25T08:20:41;98772.84;;;7.79;72.55
70338;BME280;57757;53.198;19.646;2024-03-25T08:23:08;98773.80;;;7.81;72.61
70338;BME280;57757;53.198;19.646;2024-03-25T08:25:36;98774.95;;;7.83;72.43
70338;BME280;57757;53.198;19.646;2024-03-25T08:28:04;98779.09;;;7.84;72.40
70338;BME280;57757;53.198;19.646;2024-03-25T08:30:31;98781.40;;;7.87;72.16
70338;BME280;57757;53.198;19.646;2024-03-25T08:32:58;98782.62;;;7.82;71.94
70338;BME280;57757;53.198;19.646;2024-03-25T08:35:26;98782.30;;;7.81;72.08
70338;BME280;57757;53.198;19.646;2024-03-25T08:37:53;98784.94;;;7.80;72.12
70338;BME280;57757;53.198;19.646;2024-03-25T08:40:20;98788.66;;;7.82;72.06
70338;BME280;57757;53.198;19.646;2024-03-25T08:42:48;98788.98;;;7.82;72.26
70338;BME280;57757;53.198;19.646;2024-03-25T08:45:16;98794.59;;;7.85;72.19
70338;BME280;57757;53.198;19.646;2024-03-25T08:47:43;98795.50;;;7.84;72.01
70338;BME280;57757;53.198;19.646;2024-03-25T08:50:10;98795.27;;;7.81;71.85
70338;BME280;57757;53.198;19.646;2024-03-25T08:52:38;98797.34;;;7.71;71.54
70338;BME280;57757;53.198;19.646;2024-03-25T08:55:07;98802.41;;;7.59;71.64
70338;BME280;57757;53.198;19.646;2024-03-25T08:57:34;98803.02;;;7.52;71.54
70338;BME280;57757;53.198;19.646;2024-03-25T09:00:02;98808.85;;;7.58;72.09
70338;BME280;57757;53.198;19.646;2024-03-25T09:02:32;98812.13;;;7.74;72.53
70338;BME280;57757;53.198;19.646;2024-03-25T09:05:03;98811.19;;;7.91;72.59
70338;BME280;57757;53.198;19.646;2024-03-25T09:07:37;98815.14;;;8.02;72.27
70338;BME280;57757;53.198;19.646;2024-03-25T09:10:25;98819.02;;;8.05;71.88
70338;BME280;57757;53.198;19.646;2024-03-25T09:13:10;98821.38;;;7.97;71.67
70338;BME280;57757;53.198;19.646;2024-03-25T09:15:38;98821.02;;;7.92;71.79
70338;BME280;57757;53.198;19.646;2024-03-25T09:18:06;98827.19;;;7.89;71.82
70338;BME280;57757;53.198;19.646;2024-03-25T09:20:33;98824.40;;;7.85;71.86
70338;BME280;57757;53.198;19.646;2024-03-25T09:23:00;98827.59;;;7.87;72.17
70338;BME280;57757;53.198;19.646;2024-03-25T09:25:28;98830.70;;;7.93;72.15
70338;BME280;57757;53.198;19.646;2024-03-25T09:27:56;98833.55;;;7.95;72.13
70338;BME280;57757;53.198;19.646;2024-03-25T09:30:23;98832.92;;;7.93;71.93
70338;BME280;57757;53.198;19.646;2024-03-25T09:32:50;98834.52;;;7.92;72.13
70338;BME280;57757;53.198;19.646;2024-03-25T09:35:17;98835.17;;;7.88;71.84
70338;BME280;57757;53.198;19.646;2024-03-25T09:37:45;98831.25;;;7.77;71.75
70338;BME280;57757;53.198;19.646;2024-03-25T09:40:12;98833.48;;;7.72;71.91
70338;BME280;57757;53.198;19.646;2024-03-25T09:45:11;98837.34;;;7.70;72.04
70338;BME280;57757;53.198;19.646;2024-03-25T09:47:40;98835.52;;;7.73;72.03
70338;BME280;57757;53.198;19.646;2024-03-25T09:50:08;98835.80;;;7.75;71.95
70338;BME280;57757;53.198;19.646;2024-03-25T09:52:37;98841.05;;;7.78;71.93
70338;BME280;57757;53.198;19.646;2024-03-25T09:55:04;98845.05;;;7.83;72.00
70338;BME280;57757;53.198;19.646;2024-03-25T09:57:32;98847.77;;;7.84;71.80
70338;BME280;57757;53.198;19.646;2024-03-25T10:00:00;98849.16;;;7.89;71.98
70338;BME280;57757;53.198;19.646;2024-03-25T10:02:29;98851.09;;;7.94;71.85
70338;BME280;57757;53.198;19.646;2024-03-25T10:04:57;98851.52;;;7.96;71.82
70338;BME280;57757;53.198;19.646;2024-03-25T10:07:25;98854.27;;;7.96;71.61
70338;BME280;57757;53.198;19.646;2024-03-25T10:09:53;98853.80;;;7.90;71.32
70338;BME280;57757;53.198;19.646;2024-03-25T10:12:20;98857.12;;;7.84;71.52
70338;BME280;57757;53.198;19.646;2024-03-25T10:14:47;98859.02;;;7.79;71.24
70338;BME280;57757;53.198;19.646;2024-03-25T10:17:15;98854.37;;;7.73;71.19
70338;BME280;57757;53.198;19.646;2024-03-25T10:19:42;98856.09;;;7.68;71.41
70338;BME280;57757;53.198;19.646;2024-03-25T10:22:09;98860.37;;;7.65;71.27
70338;BME280;57757;53.198;19.646;2024-03-25T10:24:44;98864.79;;;7.56;71.04
70338;BME280;57757;53.198;19.646;2024-03-25T10:27:19;98871.55;;;7.45;71.15
70338;BME280;57757;53.198;19.646;2024-03-25T10:29:47;98872.22;;;7.35;71.17
70338;BME280;57757;53.198;19.646;2024-03-25T10:32:15;98876.13;;;7.26;71.19
70338;BME280;57757;53.198;19.646;2024-03-25T10:34:43;98872.98;;;7.15;71.26
70338;BME280;57757;53.198;19.646;2024-03-25T10:37:15;98876.33;;;7.08;71.30
70338;BME280;57757;53.198;19.646;2024-03-25T10:39:49;98877.55;;;7.02;71.36
70338;BME280;57757;53.198;19.646;2024-03-25T10:42:21;98877.13;;;6.99;71.42
70338;BME280;57757;53.198;19.646;2024-03-25T10:44:48;98881.76;;;6.94;71.43
70338;BME280;57757;53.198;19.646;2024-03-25T10:47:21;98878.79;;;6.90;71.42
70338;BME280;57757;53.198;19.646;2024-03-25T10:49:56;98882.05;;;6.84;71.41
70338;BME280;57757;53.198;19.646;2024-03-25T10:52:24;98888.10;;;6.78;71.30
70338;BME280;57757;53.198;19.646;2024-03-25T10:54:53;98888.08;;;6.73;71.53
70338;BME280;57757;53.198;19.646;2024-03-25T10:57:22;98888.71;;;6.74;71.69
70338;BME280;57757;53.198;19.646;2024-03-25T10:59:50;98886.48;;;6.80;71.58
70338;BME280;57757;53.198;19.646;2024-03-25T11:02:19;98888.43;;;6.90;71.94
70338;BME280;57757;53.198;19.646;2024-03-25T11:04:46;98888.48;;;7.06;71.98
70338;BME280;57757;53.198;19.646;2024-03-25T11:07:30;98884.70;;;7.23;72.01
70338;BME280;57757;53.198;19.646;2024-03-25T11:10:14;98885.46;;;7.43;72.20
70338;BME280;57757;53.198;19.646;2024-03-25T11:12:43;98882.20;;;7.69;72.15
70338;BME280;57757;53.198;19.646;2024-03-25T11:15:10;98882.23;;;7.94;72.29
70338;BME280;57757;53.198;19.646;2024-03-25T11:17:48;98878.32;;;8.22;72.38
70338;BME280;57757;53.198;19.646;2024-03-25T11:20:16;98876.73;;;8.49;72.38
70338;BME280;57757;53.198;19.646;2024-03-25T11:22:53;98877.95;;;8.68;72.21
70338;BME280;57757;53.198;19.646;2024-03-25T11:25:21;98875.46;;;8.83;71.88
70338;BME280;57757;53.198;19.646;2024-03-25T11:27:48;98869.20;;;9.02;72.15
70338;BME280;57757;53.198;19.646;2024-03-25T11:30:16;98874.13;;;9.23;72.08
70338;BME280;57757;53.198;19.646;2024-03-25T11:32:45;98869.80;;;9.40;71.79
70338;BME280;57757;53.198;19.646;2024-03-25T11:35:13;98868.98;;;9.47;71.41
70338;BME280;57757;53.198;19.646;2024-03-25T11:37:47;98868.25;;;9.52;71.43
70338;BME280;57757;53.198;19.646;2024-03-25T11:40:18;98868.79;;;9.57;71.18
70338;BME280;57757;53.198;19.646;2024-03-25T11:42:46;98865.62;;;9.54;70.90
70338;BME280;57757;53.198;19.646;2024-03-25T11:45:18;98866.23;;;9.47;70.68
70338;BME280;57757;53.198;19.646;2024-03-25T11:47:48;98863.46;;;9.38;70.60
70338;BME280;57757;53.198;19.646;2024-03-25T11:50:17;98862.33;;;9.28;70.48
70338;BME280;57757;53.198;19.646;2024-03-25T11:52:45;98863.13;;;9.20;70.81
70338;BME280;57757;53.198;19.646;2024-03-25T11:55:16;98857.77;;;9.24;70.85
70338;BME280;57757;53.198;19.646;2024-03-25T11:57:44;98857.16;;;9.57;71.40
70338;BME280;57757;53.198;19.646;2024-03-25T12:00:12;98853.05;;;10.22;71.91
70338;BME280;57757;53.198;19.646;2024-03-25T12:02:46;98848.90;;;10.99;71.94
70338;BME280;57757;53.198;19.646;2024-03-25T12:05:14;98846.89;;;11.70;71.55
70338;BME280;57757;53.198;19.646;2024-03-25T12:07:41;98848.98;;;12.22;70.86
70338;BME280;57757;53.198;19.646;2024-03-25T12:10:08;98843.84;;;12.70;70.46
70338;BME280;57757;53.198;19.646;2024-03-25T12:12:52;98839.70;;;13.30;70.58
70338;BME280;57757;53.198;19.646;2024-03-25T12:15:20;98843.02;;;13.73;69.84
70338;BME280;57757;53.198;19.646;2024-03-25T12:17:48;98840.74;;;14.06;69.36
70338;BME280;57757;53.198;19.646;2024-03-25T12:20:16;98843.31;;;14.16;69.03
70338;BME280;57757;53.198;19.646;2024-03-25T12:22:44;98844.95;;;13.82;67.93
70338;BME280;57757;53.198;19.646;2024-03-25T12:25:12;98844.16;;;13.75;68.56
70338;BME280;57757;53.198;19.646;2024-03-25T12:27:39;98841.11;;;14.35;69.52
70338;BME280;57757;53.198;19.646;2024-03-25T12:30:09;98839.11;;;15.05;69.61
70338;BME280;57757;53.198;19.646;2024-03-25T12:32:42;98845.20;;;15.68;69.45
70338;BME280;57757;53.198;19.646;2024-03-25T12:35:14;98843.16;;;16.12;68.18
70338;BME280;57757;53.198;19.646;2024-03-25T12:37:47;98848.36;;;16.36;67.81
70338;BME280;57757;53.198;19.646;2024-03-25T12:40:31;98852.67;;;15.93;65.78
70338;BME280;57757;53.198;19.646;2024-03-25T12:42:58;98850.44;;;15.50;66.36
70338;BME280;57757;53.198;19.646;2024-03-25T12:45:25;98859.06;;;15.84;67.37
70338;BME280;57757;53.198;19.646;2024-03-25T12:47:53;98853.99;;;16.26;67.03
70338;BME280;57757;53.198;19.646;2024-03-25T12:50:20;98850.27;;;16.65;67.09
70338;BME280;57757;53.198;19.646;2024-03-25T12:52:51;98850.02;;;17.13;67.04
70338;BME280;57757;53.198;19.646;2024-03-25T12:55:18;98854.16;;;17.46;66.56
70338;BME280;57757;53.198;19.646;2024-03-25T12:57:45;98852.98;;;17.43;65.39
70338;BME280;57757;53.198;19.646;2024-03-25T13:00:14;98852.97;;;17.69;66.01
70338;BME280;57757;53.198;19.646;2024-03-25T13:02:41;98853.29;;;17.74;65.27
70338;BME280;57757;53.198;19.646;2024-03-25T13:05:09;98854.47;;;17.65;65.49
70338;BME280;57757;53.198;19.646;2024-03-25T13:07:36;98853.48;;;18.05;65.78